createdAt,value
2017-07-30T00:01:30.890Z,18.80
2017-07-30T00:03:57.155Z,19.30
2017-07-30T00:06:23.443Z,19.00
2017-07-30T00:08:49.687Z,18.80
2017-07-30T00:11:15.933Z,18.70
2017-07-30T00:13:42.204Z,18.90
2017-07-30T00:17:35.900Z,18.90
2017-07-30T00:20:02.200Z,18.80
2017-07-30T00:22:28.445Z,18.60
2017-07-30T00:24:54.711Z,18.70
2017-07-30T00:27:20.960Z,18.60
2017-07-30T00:29:47.201Z,18.70
2017-07-30T00:32:13.499Z,18.60
2017-07-30T00:34:39.760Z,18.70
2017-07-30T00:37:06.000Z,18.60
2017-07-30T00:39:32.289Z,18.60
2017-07-30T00:41:58.531Z,18.90
2017-07-30T00:44:24.814Z,18.70
2017-07-30T00:46:51.050Z,18.70
2017-07-30T00:49:17.301Z,18.80
2017-07-30T00:51:43.565Z,18.70
2017-07-30T00:54:09.844Z,18.70
2017-07-30T00:56:36.120Z,18.60
2017-07-30T00:59:02.406Z,18.80
2017-07-30T01:01:28.667Z,18.80
2017-07-30T01:03:54.930Z,18.70
2017-07-30T01:06:21.188Z,18.70
2017-07-30T01:08:47.472Z,18.90
2017-07-30T01:11:13.714Z,18.60
2017-07-30T01:13:39.980Z,18.70
2017-07-30T01:17:35.498Z,18.80
2017-07-30T01:20:01.823Z,18.30
2017-07-30T01:22:28.096Z,18.50
2017-07-30T01:24:54.345Z,18.30
2017-07-30T01:27:20.625Z,18.70
2017-07-30T01:29:46.868Z,18.10
2017-07-30T01:32:13.154Z,18.10
2017-07-30T01:34:39.397Z,17.70
2017-07-30T01:37:05.671Z,17.70
2017-07-30T01:39:31.934Z,18.00
2017-07-30T01:41:58.192Z,18.00
2017-07-30T01:44:24.481Z,18.00
2017-07-30T01:46:50.788Z,18.10
2017-07-30T01:49:17.068Z,18.10
2017-07-30T01:51:43.329Z,18.10
2017-07-30T01:54:09.588Z,18.20
2017-07-30T01:56:35.860Z,18.20
2017-07-30T01:59:02.183Z,18.20
2017-07-30T02:01:28.444Z,18.10
2017-07-30T02:03:54.764Z,18.30
2017-07-30T02:06:21.029Z,18.20
2017-07-30T02:08:47.333Z,18.20
2017-07-30T02:11:13.568Z,18.10
2017-07-30T02:13:39.838Z,18.00
2017-07-30T02:17:35.958Z,18.20
2017-07-30T02:20:02.227Z,18.20
2017-07-30T02:22:29.242Z,18.10
2017-07-30T02:24:55.978Z,18.10
2017-07-30T02:27:22.241Z,18.00
2017-07-30T02:29:48.499Z,18.10
2017-07-30T02:32:14.801Z,18.10
2017-07-30T02:34:41.056Z,18.10
2017-07-30T02:37:07.324Z,18.10
2017-07-30T02:39:33.594Z,17.90
2017-07-30T02:41:59.853Z,18.10
2017-07-30T02:44:26.100Z,17.90
2017-07-30T02:46:52.355Z,18.30
2017-07-30T02:49:18.693Z,18.10
2017-07-30T02:51:44.946Z,18.10
2017-07-30T02:54:11.208Z,18.20
2017-07-30T02:56:37.434Z,18.10
2017-07-30T02:59:03.673Z,18.10
2017-07-30T03:01:29.908Z,18.10
2017-07-30T03:03:56.151Z,18.20
2017-07-30T03:06:22.433Z,18.20
2017-07-30T03:08:48.668Z,18.20
2017-07-30T03:11:14.932Z,17.90
2017-07-30T03:13:41.172Z,18.10
2017-07-30T03:17:35.583Z,18.30
2017-07-30T03:20:02.789Z,18.10
2017-07-30T03:22:29.044Z,18.10
2017-07-30T03:24:55.331Z,18.10
2017-07-30T03:27:21.577Z,18.60
2017-07-30T03:29:47.895Z,18.50
2017-07-30T03:32:14.177Z,18.60
2017-07-30T03:34:40.428Z,18.50
2017-07-30T03:37:06.683Z,18.60
2017-07-30T03:39:32.926Z,18.70
2017-07-30T03:41:59.183Z,18.80
2017-07-30T03:44:25.448Z,18.20
2017-07-30T03:46:51.692Z,18.80
2017-07-30T03:49:17.940Z,18.70
2017-07-30T03:51:44.197Z,18.70
2017-07-30T03:54:10.483Z,18.80
2017-07-30T03:56:36.734Z,18.60
2017-07-30T03:59:02.996Z,18.50
2017-07-30T04:01:29.251Z,18.70
2017-07-30T04:03:55.498Z,18.80
2017-07-30T04:06:21.798Z,18.80
2017-07-30T04:08:48.074Z,18.80
2017-07-30T04:11:14.325Z,18.90
2017-07-30T04:13:40.572Z,18.80
2017-07-30T04:17:35.285Z,18.90
2017-07-30T04:20:01.560Z,19.00
2017-07-30T04:22:27.817Z,19.00
2017-07-30T04:24:54.075Z,18.40
2017-07-30T04:27:27.260Z,18.80
2017-07-30T04:29:53.495Z,18.80
2017-07-30T04:32:19.736Z,18.80
2017-07-30T04:34:45.984Z,18.90
2017-07-30T04:37:12.245Z,19.20
2017-07-30T04:39:38.481Z,19.30
2017-07-30T04:42:04.774Z,19.30
2017-07-30T04:44:31.029Z,19.30
2017-07-30T04:46:57.273Z,19.30
2017-07-30T04:49:23.528Z,19.50
2017-07-30T04:51:49.795Z,19.40
2017-07-30T04:54:16.041Z,19.90
2017-07-30T04:56:42.287Z,19.70
2017-07-30T04:59:08.520Z,20.00
2017-07-30T05:01:34.761Z,20.00
2017-07-30T05:04:01.407Z,19.90
2017-07-30T05:06:27.652Z,20.30
2017-07-30T05:08:53.898Z,20.10
2017-07-30T05:11:20.149Z,20.10
2017-07-30T05:13:46.374Z,20.30
2017-07-30T05:17:36.004Z,20.20
2017-07-30T05:20:02.267Z,20.20
2017-07-30T05:22:28.533Z,20.30
2017-07-30T05:24:54.776Z,20.00
2017-07-30T05:27:21.041Z,20.40
2017-07-30T05:29:47.310Z,20.10
2017-07-30T05:32:13.561Z,20.40
2017-07-30T05:34:39.820Z,20.60
2017-07-30T05:37:06.076Z,20.30
2017-07-30T05:39:32.329Z,20.80
2017-07-30T05:41:58.592Z,20.10
2017-07-30T05:44:24.848Z,20.80
2017-07-30T05:46:51.072Z,20.70
2017-07-30T05:49:17.352Z,20.80
2017-07-30T05:51:43.634Z,20.70
2017-07-30T05:54:09.930Z,20.90
2017-07-30T05:56:36.175Z,20.50
2017-07-30T05:59:02.426Z,20.80
2017-07-30T06:01:28.712Z,20.90
2017-07-30T06:03:54.935Z,20.90
2017-07-30T06:06:21.215Z,21.00
2017-07-30T06:08:47.468Z,20.90
2017-07-30T06:11:13.688Z,20.90
2017-07-30T06:13:39.954Z,20.90
2017-07-30T06:17:35.664Z,21.30
2017-07-30T06:20:01.932Z,21.60
2017-07-30T06:22:28.182Z,21.70
2017-07-30T06:24:54.428Z,21.90
2017-07-30T06:27:20.680Z,21.70
2017-07-30T06:29:46.942Z,21.90
2017-07-30T06:32:13.525Z,21.80
2017-07-30T06:34:39.773Z,21.80
2017-07-30T06:37:06.041Z,22.10
2017-07-30T06:39:32.280Z,22.00
2017-07-30T06:41:58.570Z,21.80
2017-07-30T06:44:24.818Z,22.00
2017-07-30T06:46:51.069Z,22.50
2017-07-30T06:49:17.330Z,22.00
2017-07-30T06:51:43.598Z,22.20
2017-07-30T06:54:09.901Z,21.90
2017-07-30T06:56:36.158Z,22.20
2017-07-30T06:59:02.409Z,22.50
2017-07-30T07:01:28.652Z,21.60
2017-07-30T07:03:54.909Z,22.10
2017-07-30T07:06:21.176Z,22.00
2017-07-30T07:08:47.444Z,22.00
2017-07-30T07:11:13.749Z,22.00
2017-07-30T07:13:40.012Z,22.30
2017-07-30T07:17:36.725Z,22.00
2017-07-30T07:20:03.019Z,22.30
2017-07-30T07:22:29.292Z,22.70
2017-07-30T07:24:55.544Z,22.70
2017-07-30T07:27:21.819Z,22.70
2017-07-30T07:29:48.072Z,22.80
2017-07-30T07:32:14.349Z,22.80
2017-07-30T07:34:40.605Z,23.10
2017-07-30T07:37:06.884Z,23.20
2017-07-30T07:39:33.696Z,23.00
2017-07-30T07:41:59.977Z,22.60
2017-07-30T07:44:26.269Z,22.60
2017-07-30T07:46:52.536Z,23.00
2017-07-30T07:49:18.775Z,23.30
2017-07-30T07:51:45.053Z,23.10
2017-07-30T07:54:11.293Z,23.00
2017-07-30T07:56:37.563Z,23.10
2017-07-30T07:59:03.792Z,23.20
2017-07-30T08:01:30.033Z,23.20
2017-07-30T08:03:56.297Z,23.00
2017-07-30T08:06:22.559Z,22.90
2017-07-30T08:08:48.817Z,23.70
2017-07-30T08:11:15.065Z,23.30
2017-07-30T08:13:41.291Z,23.80
2017-07-30T08:17:35.580Z,24.00
2017-07-30T08:20:02.640Z,23.60
2017-07-30T08:22:29.657Z,23.30
2017-07-30T08:24:55.920Z,23.60
2017-07-30T08:27:22.184Z,23.80
2017-07-30T08:29:48.496Z,23.70
2017-07-30T08:32:14.762Z,24.00
2017-07-30T08:34:41.026Z,24.10
2017-07-30T08:37:07.307Z,24.40
2017-07-30T08:39:33.550Z,24.00
2017-07-30T08:41:59.814Z,23.80
2017-07-30T08:44:26.094Z,24.30
2017-07-30T08:46:52.345Z,24.20
2017-07-30T08:49:18.586Z,24.70
2017-07-30T08:51:44.830Z,24.80
2017-07-30T08:54:11.087Z,25.20
2017-07-30T08:56:37.365Z,24.80
2017-07-30T08:59:03.595Z,24.80
2017-07-30T09:01:29.851Z,25.30
2017-07-30T09:03:56.089Z,25.30
2017-07-30T09:06:22.328Z,25.40
2017-07-30T09:08:48.576Z,25.50
2017-07-30T09:11:14.814Z,25.60
2017-07-30T09:13:41.053Z,25.20
2017-07-30T09:17:35.943Z,24.60
2017-07-30T09:20:02.252Z,24.50
2017-07-30T09:22:28.520Z,24.00
2017-07-30T09:24:54.768Z,22.80
2017-07-30T09:27:21.046Z,22.50
2017-07-30T09:29:47.304Z,21.30
2017-07-30T09:32:13.594Z,21.50
2017-07-30T09:34:39.895Z,21.40
2017-07-30T09:37:06.176Z,21.00
2017-07-30T09:39:32.420Z,21.00
2017-07-30T09:41:58.674Z,20.90
2017-07-30T09:44:24.961Z,20.90
2017-07-30T09:46:51.220Z,20.90
2017-07-30T09:49:17.477Z,21.00
2017-07-30T09:51:43.757Z,21.10
2017-07-30T09:54:10.126Z,21.10
2017-07-30T09:56:36.454Z,22.00
2017-07-30T09:59:02.738Z,22.40
2017-07-30T10:01:28.986Z,22.50
2017-07-30T10:03:55.241Z,22.40
2017-07-30T10:06:21.522Z,22.80
2017-07-30T10:08:47.785Z,22.90
2017-07-30T10:11:14.196Z,22.90
2017-07-30T10:13:40.468Z,23.00
2017-07-30T10:17:36.865Z,22.80
2017-07-30T10:20:03.158Z,22.50
2017-07-30T10:22:29.409Z,21.40
2017-07-30T10:24:55.692Z,20.80
2017-07-30T10:27:21.980Z,20.20
2017-07-30T10:29:48.240Z,20.30
2017-07-30T10:32:14.491Z,20.20
2017-07-30T10:34:40.713Z,20.40
2017-07-30T10:37:07.168Z,20.50
2017-07-30T10:39:33.467Z,20.90
2017-07-30T10:41:59.692Z,21.40
2017-07-30T10:44:25.976Z,21.60
2017-07-30T10:46:52.279Z,21.40
2017-07-30T10:49:18.507Z,21.60
2017-07-30T10:51:44.756Z,21.60
2017-07-30T10:54:11.004Z,21.50
2017-07-30T10:56:37.239Z,21.60
2017-07-30T10:59:03.489Z,21.40
2017-07-30T11:01:29.746Z,22.10
2017-07-30T11:03:55.969Z,21.60
2017-07-30T11:06:22.221Z,22.00
2017-07-30T11:08:48.488Z,22.20
2017-07-30T11:11:15.008Z,22.20
2017-07-30T11:13:41.272Z,22.20
2017-07-30T11:17:35.636Z,22.40
2017-07-30T11:20:02.271Z,22.30
2017-07-30T11:22:28.516Z,22.50
2017-07-30T11:24:54.771Z,23.00
2017-07-30T11:27:21.205Z,24.10
2017-07-30T11:29:48.241Z,23.80
2017-07-30T11:32:14.504Z,23.80
2017-07-30T11:34:40.755Z,23.90
2017-07-30T11:37:07.000Z,23.80
2017-07-30T11:39:33.240Z,23.60
2017-07-30T11:41:59.476Z,23.80
2017-07-30T11:44:25.703Z,23.70
2017-07-30T11:46:51.969Z,23.80
2017-07-30T11:49:18.197Z,23.60
2017-07-30T11:51:44.432Z,22.30
2017-07-30T11:54:10.677Z,22.10
2017-07-30T11:56:36.917Z,21.60
2017-07-30T11:59:03.185Z,22.10
2017-07-30T12:01:29.427Z,22.10
2017-07-30T12:03:55.647Z,21.50
2017-07-30T12:06:21.896Z,22.20
2017-07-30T12:08:48.138Z,22.80
2017-07-30T12:11:14.403Z,23.40
2017-07-30T12:13:40.632Z,23.80
2017-07-30T12:17:35.988Z,23.50
2017-07-30T12:20:02.249Z,23.50
2017-07-30T12:22:28.624Z,23.10
2017-07-30T12:24:54.865Z,23.60
2017-07-30T12:27:21.134Z,23.90
2017-07-30T12:29:47.368Z,23.60
2017-07-30T12:32:13.630Z,24.40
2017-07-30T12:34:39.894Z,24.30
2017-07-30T12:37:06.122Z,24.10
2017-07-30T12:39:32.384Z,24.40
2017-07-30T12:41:58.638Z,23.90
2017-07-30T12:44:55.400Z,23.80
2017-07-30T12:47:21.729Z,23.80
2017-07-30T12:49:48.026Z,23.80
2017-07-30T12:52:14.282Z,23.80
2017-07-30T12:54:40.514Z,23.90
2017-07-30T12:57:06.779Z,23.70
2017-07-30T12:59:33.398Z,23.70
2017-07-30T13:01:59.643Z,23.80
2017-07-30T13:04:25.925Z,23.80
2017-07-30T13:06:52.181Z,23.70
2017-07-30T13:09:18.772Z,24.10
2017-07-30T13:11:45.221Z,24.40
2017-07-30T13:14:11.515Z,24.50
2017-07-30T13:17:36.716Z,23.90
2017-07-30T13:20:02.988Z,24.00
2017-07-30T13:22:30.199Z,24.10
2017-07-30T13:24:57.640Z,23.70
2017-07-30T13:27:23.956Z,23.80
2017-07-30T13:29:50.192Z,23.80
2017-07-30T13:32:16.484Z,24.50
2017-07-30T13:34:42.730Z,24.40
2017-07-30T13:37:08.975Z,24.10
2017-07-30T13:39:35.236Z,23.80
2017-07-30T13:42:01.477Z,23.70
2017-07-30T13:44:27.749Z,24.20
2017-07-30T13:46:54.003Z,23.80
2017-07-30T13:49:20.311Z,23.80
2017-07-30T13:51:46.564Z,24.30
2017-07-30T13:54:12.837Z,23.60
2017-07-30T13:56:39.103Z,23.70
2017-07-30T13:59:05.377Z,23.80
2017-07-30T14:01:31.682Z,23.70
2017-07-30T14:03:57.925Z,23.90
2017-07-30T14:06:24.193Z,23.60
2017-07-30T14:08:50.510Z,23.70
2017-07-30T14:11:16.793Z,23.10
2017-07-30T14:13:43.062Z,23.60
2017-07-30T14:17:42.565Z,23.60
2017-07-30T14:20:08.860Z,22.90
2017-07-30T14:22:35.116Z,23.60
2017-07-30T14:25:01.477Z,23.30
2017-07-30T14:27:27.732Z,23.00
2017-07-30T14:29:55.795Z,22.90
2017-07-30T14:32:22.109Z,23.60
2017-07-30T14:34:48.381Z,23.50
2017-07-30T14:37:14.620Z,23.70
2017-07-30T14:39:40.930Z,23.00
2017-07-30T14:42:07.211Z,23.20
2017-07-30T14:44:33.525Z,23.10
2017-07-30T14:46:59.861Z,23.20
2017-07-30T14:49:26.805Z,23.10
2017-07-30T14:51:53.084Z,23.10
2017-07-30T14:54:20.371Z,23.20
2017-07-30T14:56:47.737Z,23.60
2017-07-30T14:59:14.933Z,23.70
2017-07-30T15:01:42.381Z,23.90
2017-07-30T15:04:08.724Z,24.30
2017-07-30T15:06:35.723Z,23.90
2017-07-30T15:09:02.492Z,24.30
2017-07-30T15:11:28.867Z,24.30
2017-07-30T15:13:55.144Z,24.40
2017-07-30T15:17:36.279Z,24.40
2017-07-30T15:20:02.808Z,24.40
2017-07-30T15:22:29.060Z,24.40
2017-07-30T15:24:56.126Z,24.70
2017-07-30T15:27:22.380Z,24.80
2017-07-30T15:29:48.636Z,24.70
2017-07-30T15:32:14.948Z,24.70
2017-07-30T15:34:41.214Z,24.20
2017-07-30T15:37:07.502Z,24.60
2017-07-30T15:39:33.836Z,24.00
2017-07-30T15:42:00.153Z,24.80
2017-07-30T15:44:26.410Z,24.40
2017-07-30T15:46:52.864Z,24.10
2017-07-30T15:49:20.156Z,23.80
2017-07-30T15:51:46.443Z,23.80
2017-07-30T15:54:12.824Z,23.80
2017-07-30T15:56:39.123Z,23.20
2017-07-30T15:59:05.434Z,23.80
2017-07-30T16:01:31.717Z,23.60
2017-07-30T16:03:58.015Z,23.60
2017-07-30T16:06:24.262Z,23.70
2017-07-30T16:08:50.529Z,23.60
2017-07-30T16:11:16.945Z,23.70
2017-07-30T16:13:43.216Z,23.80
2017-07-30T16:17:36.664Z,23.70
2017-07-30T16:20:02.929Z,24.30
2017-07-30T16:22:29.267Z,23.90
2017-07-30T16:24:55.567Z,23.80
2017-07-30T16:27:21.842Z,23.20
2017-07-30T16:29:48.093Z,23.20
2017-07-30T16:32:14.415Z,23.80
2017-07-30T16:34:40.917Z,23.50
2017-07-30T16:37:07.188Z,24.00
2017-07-30T16:39:33.467Z,24.50
2017-07-30T16:41:59.708Z,24.00
2017-07-30T16:44:25.964Z,24.30
2017-07-30T16:46:52.219Z,23.70
2017-07-30T16:49:18.513Z,23.70
2017-07-30T16:51:44.851Z,23.90
2017-07-30T16:54:11.136Z,23.50
2017-07-30T16:56:37.404Z,23.70
2017-07-30T16:59:03.726Z,23.70
2017-07-30T17:01:30.072Z,23.60
2017-07-30T17:03:56.320Z,23.80
2017-07-30T17:06:22.579Z,23.80
2017-07-30T17:08:48.886Z,23.60
2017-07-30T17:11:15.152Z,23.60
2017-07-30T17:13:41.394Z,23.80
2017-07-30T17:17:35.734Z,24.00
2017-07-30T17:20:02.313Z,23.70
2017-07-30T17:22:28.569Z,23.50
2017-07-30T17:24:54.888Z,23.20
2017-07-30T17:27:21.127Z,23.40
2017-07-30T17:29:47.370Z,23.00
2017-07-30T17:32:13.632Z,23.00
2017-07-30T17:34:39.902Z,23.10
2017-07-30T17:37:06.169Z,23.10
2017-07-30T17:39:32.440Z,23.30
2017-07-30T17:41:58.725Z,23.60
2017-07-30T17:44:24.977Z,23.10
2017-07-30T17:46:51.248Z,22.90
2017-07-30T17:49:17.516Z,22.90
2017-07-30T17:51:43.777Z,22.90
2017-07-30T17:54:10.056Z,23.00
2017-07-30T17:56:36.334Z,22.90
2017-07-30T17:59:02.623Z,23.00
2017-07-30T18:01:28.893Z,23.00
2017-07-30T18:03:55.201Z,22.90
2017-07-30T18:06:21.498Z,22.90
2017-07-30T18:08:47.782Z,22.90
2017-07-30T18:11:14.062Z,22.80
2017-07-30T18:13:40.322Z,22.20
2017-07-30T18:17:36.037Z,22.30
2017-07-30T18:20:02.338Z,22.30
2017-07-30T18:22:28.608Z,22.40
2017-07-30T18:24:54.936Z,22.60
2017-07-30T18:27:21.211Z,22.20
2017-07-30T18:29:47.508Z,22.10
2017-07-30T18:32:13.797Z,22.20
2017-07-30T18:34:40.060Z,21.90
2017-07-30T18:37:06.326Z,22.20
2017-07-30T18:39:32.645Z,21.70
2017-07-30T18:41:58.911Z,21.60
2017-07-30T18:44:25.208Z,21.70
2017-07-30T18:46:51.488Z,21.60
2017-07-30T18:49:17.745Z,21.60
2017-07-30T18:51:44.012Z,21.60
2017-07-30T18:54:10.313Z,21.50
2017-07-30T18:56:36.568Z,21.40
2017-07-30T18:59:02.852Z,21.40
2017-07-30T19:01:29.176Z,21.00
2017-07-30T19:03:55.473Z,21.20
2017-07-30T19:06:21.782Z,21.00
2017-07-30T19:08:48.068Z,20.70
2017-07-30T19:11:14.328Z,20.80
2017-07-30T19:13:40.608Z,20.70
2017-07-30T19:17:35.991Z,20.40
2017-07-30T19:20:02.277Z,20.30
2017-07-30T19:22:28.547Z,20.30
2017-07-30T19:24:54.832Z,20.20
2017-07-30T19:27:21.115Z,20.00
2017-07-30T19:29:47.405Z,20.20
2017-07-30T19:32:13.668Z,19.50
2017-07-30T19:34:39.969Z,20.30
2017-07-30T19:37:06.269Z,20.20
2017-07-30T19:39:32.576Z,20.30
2017-07-30T19:41:58.852Z,20.30
2017-07-30T19:44:25.113Z,20.20
2017-07-30T19:46:51.429Z,20.30
2017-07-30T19:49:17.691Z,20.10
2017-07-30T19:51:43.936Z,20.20
2017-07-30T19:54:10.226Z,20.30
2017-07-30T19:56:36.471Z,20.10
2017-07-30T19:59:02.717Z,20.30
2017-07-30T20:01:29.028Z,20.20
2017-07-30T20:03:55.291Z,19.80
2017-07-30T20:06:21.568Z,20.20
2017-07-30T20:08:47.878Z,20.20
2017-07-30T20:11:14.135Z,19.50
2017-07-30T20:13:40.457Z,20.20
2017-07-30T20:17:35.636Z,20.20
2017-07-30T20:20:01.941Z,19.60
2017-07-30T20:22:28.208Z,20.10
2017-07-30T20:24:54.520Z,20.10
2017-07-30T20:27:20.820Z,20.20
2017-07-30T20:29:47.077Z,20.10
2017-07-30T20:32:13.392Z,19.00
2017-07-30T20:34:39.676Z,20.10
2017-07-30T20:37:05.954Z,19.70
2017-07-30T20:39:32.263Z,19.60
2017-07-30T20:41:58.564Z,19.70
2017-07-30T20:44:24.809Z,19.30
2017-07-30T20:46:51.159Z,19.60
2017-07-30T20:49:17.407Z,19.40
2017-07-30T20:51:43.696Z,19.40
2017-07-30T20:54:09.993Z,19.30
2017-07-30T20:56:36.241Z,19.50
2017-07-30T20:59:02.493Z,19.10
2017-07-30T21:01:28.779Z,19.50
2017-07-30T21:03:55.016Z,19.50
2017-07-30T21:06:21.258Z,19.10
2017-07-30T21:08:47.529Z,19.00
2017-07-30T21:11:13.792Z,19.30
2017-07-30T21:13:40.055Z,19.30
2017-07-30T21:17:35.292Z,19.00
2017-07-30T21:20:02.322Z,19.00
2017-07-30T21:22:29.343Z,19.50
2017-07-30T21:24:55.621Z,18.90
2017-07-30T21:27:21.863Z,19.20
2017-07-30T21:29:48.180Z,18.80
2017-07-30T21:32:14.473Z,18.70
2017-07-30T21:34:40.768Z,18.90
2017-07-30T21:37:07.040Z,18.70
2017-07-30T21:39:33.307Z,18.70
2017-07-30T21:41:59.571Z,18.70
2017-07-30T21:44:25.796Z,18.70
2017-07-30T21:46:52.056Z,18.20
2017-07-30T21:49:18.321Z,18.20
2017-07-30T21:51:44.568Z,18.20
2017-07-30T21:54:10.841Z,18.20
2017-07-30T21:56:37.078Z,18.30
2017-07-30T21:59:03.300Z,18.20
2017-07-30T22:01:29.573Z,18.00
2017-07-30T22:03:55.804Z,18.20
2017-07-30T22:06:22.057Z,18.10
2017-07-30T22:08:48.334Z,18.10
2017-07-30T22:11:14.582Z,18.10
2017-07-30T22:13:40.819Z,17.80
2017-07-30T22:17:35.949Z,17.60
2017-07-30T22:20:02.201Z,17.60
2017-07-30T22:22:28.432Z,17.40
2017-07-30T22:24:54.692Z,17.60
2017-07-30T22:27:20.934Z,17.20
2017-07-30T22:29:47.221Z,17.10
2017-07-30T22:32:13.488Z,17.20
2017-07-30T22:34:39.735Z,17.20
2017-07-30T22:37:05.979Z,16.80
2017-07-30T22:39:32.238Z,17.20
2017-07-30T22:41:58.480Z,17.00
2017-07-30T22:44:24.708Z,16.70
2017-07-30T22:46:50.966Z,17.00
2017-07-30T22:49:17.216Z,17.00
2017-07-30T22:51:43.481Z,17.00
2017-07-30T22:54:09.756Z,17.00
2017-07-30T22:56:35.993Z,16.80
2017-07-30T22:59:02.240Z,16.50
2017-07-30T23:01:28.508Z,16.70
2017-07-30T23:03:54.754Z,16.50
2017-07-30T23:06:20.996Z,16.60
2017-07-30T23:08:47.272Z,16.70
2017-07-30T23:11:13.527Z,16.60
2017-07-30T23:13:39.775Z,16.30
2017-07-30T23:17:35.149Z,16.30
2017-07-30T23:20:02.155Z,16.20
2017-07-30T23:22:28.392Z,16.20
2017-07-30T23:24:54.652Z,16.50
2017-07-30T23:27:20.888Z,16.30
2017-07-30T23:29:47.121Z,16.40
2017-07-30T23:32:13.392Z,17.10
2017-07-30T23:34:39.631Z,17.10
2017-07-30T23:37:05.881Z,17.00
2017-07-30T23:39:32.178Z,16.90
2017-07-30T23:41:58.439Z,17.10
2017-07-30T23:44:24.687Z,16.90
2017-07-30T23:46:50.957Z,17.10
2017-07-30T23:49:17.187Z,17.10
2017-07-30T23:51:43.432Z,17.10
2017-07-30T23:54:09.700Z,16.90
2017-07-30T23:56:35.944Z,16.80
2017-07-30T23:59:02.189Z,16.80
